Carpentersville, Illinois
Current Conditions -  °F | °C
As of 1:52 AM on Monday 22 Dec 2014 (Local Time) from KDPA Reporting Station
Haze Haze  
Wind Chill: 23°   Ceiling: 4600
Heat Index: 32°   Visibility: 6mi
Dew Point: 27°   Wind: 12mph
Humidity: 82%   Direction: 150°SSE
Pressure: 29.97"   Gusts: NA
Location:  42.12°N, 88.26°W
Report Text: KDPA 220752Z 15010KT 6SM HZ BKN046 00/M03 A2997 RMK AO2 SLP156 T00001028
Loading
Personal Weather Stations






























Interactive Weather Map New forecast layout! Learn more

10-Day Weather Forecast

Advertisements
Track Severe Weather on mobile